Time;durP1;ratioP1;P1;durP2;ratioP2;P2;SDS_P1;SDS_P2;PMS_P1;PMS_P2;Temp;Humidity;BMP_temperature;BMP_pressure;BME280_temperature;BME280_humidity;BME280_pressure;Samples;Min_cycle;Max_cycle;Signal;HPM_P1;HPM_P2
2022/03/14 00:01:19;;;;;;;;;;;9.50;99.90;;;;;;5048558;28;19951;-74
2022/03/14 00:03:50;;;;;;;;;;;9.50;99.90;;;;;;5049578;28;19925;-73
2022/03/14 00:06:17;;;;;;;;;;;9.50;99.90;;;;;;5052116;28;19925;-76
2022/03/14 00:08:45;;;;;;;;;;;9.50;99.90;;;;;;5044669;28;19964;-73
2022/03/14 00:11:14;;;;;;;;;;;9.40;99.90;;;;;;5043437;28;19974;-74
2022/03/14 00:13:43;;;;;;;;;;;9.40;99.90;;;;;;5047850;28;19967;-73
2022/03/14 00:16:14;;;;;;;;;;;9.40;99.90;;;;;;5051076;28;20392;-73
2022/03/14 00:18:51;;;;;;;;;;;9.30;99.90;;;;;;5051958;28;19960;-73
2022/03/14 00:21:23;;;;;;;;;;;9.40;99.90;;;;;;5040892;28;19933;-73
2022/03/14 00:23:50;;;;;;;;;;;9.30;99.90;;;;;;5038410;28;19992;-73
2022/03/14 00:26:16;;;;;;;;;;;9.30;99.90;;;;;;5049489;28;20015;-73
2022/03/14 00:28:43;;;;;;;;;;;9.20;99.90;;;;;;5047252;28;20002;-74
2022/03/14 00:31:10;;;;;;;;;;;9.20;99.90;;;;;;5045182;28;20036;-74
2022/03/14 00:33:39;;;;;;;;;;;9.20;99.90;;;;;;5051364;28;20339;-73
2022/03/14 00:36:08;;;;;;;;;;;9.20;99.90;;;;;;5043885;28;19929;-73
2022/03/14 00:38:35;;;;;;;;;;;9.20;99.90;;;;;;5046126;28;20313;-73
2022/03/14 00:41:02;;;;;;;;;;;9.20;99.90;;;;;;5044920;28;19925;-73
2022/03/14 00:43:28;;;;;;;;;;;9.20;99.90;;;;;;5041021;28;19995;-73
2022/03/14 00:45:55;;;;;;;;;;;9.20;99.90;;;;;;5048171;28;19931;-73
2022/03/14 00:48:22;;;;;;;;;;;9.30;99.90;;;;;;5035868;28;19925;-73
2022/03/14 00:50:49;;;;;;;;;;;9.20;99.90;;;;;;5041866;28;19925;-71
2022/03/14 00:53:17;;;;;;;;;;;9.30;99.90;;;;;;5050705;28;20255;-71
2022/03/14 00:55:44;;;;;;;;;;;9.20;99.90;;;;;;5046055;28;19925;-71
2022/03/14 00:58:11;;;;;;;;;;;9.20;99.90;;;;;;5050840;28;19925;-71
2022/03/14 01:00:37;;;;;;;;;;;9.20;99.90;;;;;;5044476;28;19939;-71
2022/03/14 01:03:04;;;;;;;;;;;9.10;99.90;;;;;;5035262;28;19929;-71
2022/03/14 01:05:31;;;;;;;;;;;9.20;99.90;;;;;;5039427;28;19933;-71
2022/03/14 01:07:57;;;;;;;;;;;9.10;99.90;;;;;;5048550;28;19935;-72
2022/03/14 01:10:25;;;;;;;;;;;9.10;99.90;;;;;;5045734;28;19932;-73
2022/03/14 01:12:52;;;;;;;;;;;9.00;99.90;;;;;;5046641;28;19978;-73
2022/03/14 01:15:19;;;;;;;;;;;9.10;99.90;;;;;;5042432;28;19925;-72
2022/03/14 01:17:45;;;;;;;;;;;9.00;99.90;;;;;;5052620;28;20010;-73
2022/03/14 01:20:12;;;;;;;;;;;9.00;99.90;;;;;;5052655;28;20399;-72
2022/03/14 01:22:39;;;;;;;;;;;9.00;99.90;;;;;;5037999;28;19925;-72
2022/03/14 01:25:06;;;;;;;;;;;9.10;99.90;;;;;;5043784;28;19929;-73
2022/03/14 01:27:34;;;;;;;;;;;9.10;99.90;;;;;;5035484;28;19931;-72
2022/03/14 01:30:01;;;;;;;;;;;9.00;99.90;;;;;;5041270;28;19925;-72
2022/03/14 01:32:28;;;;;;;;;;;9.10;99.90;;;;;;5045434;28;19928;-73
2022/03/14 01:34:54;;;;;;;;;;;9.10;99.90;;;;;;5058713;28;19925;-73
2022/03/14 01:37:21;;;;;;;;;;;9.00;99.90;;;;;;5051947;28;19968;-72
2022/03/14 01:39:49;;;;;;;;;;;9.00;99.90;;;;;;5039274;28;19932;-72
2022/03/14 01:42:16;;;;;;;;;;;9.00;99.90;;;;;;5045166;28;19925;-73
2022/03/14 01:44:45;;;;;;;;;;;9.00;99.90;;;;;;5048286;28;22241;-73
2022/03/14 01:47:12;;;;;;;;;;;9.00;99.90;;;;;;5044843;28;20371;-72
2022/03/14 01:49:38;;;;;;;;;;;9.10;99.90;;;;;;5038522;28;19941;-72
2022/03/14 01:52:07;;;;;;;;;;;9.00;99.90;;;;;;5039581;28;19935;-72
2022/03/14 01:54:34;;;;;;;;;;;9.00;99.90;;;;;;5049125;28;20444;-72
2022/03/14 01:57:00;;;;;;;;;;;8.90;99.90;;;;;;5041046;28;21116;-72
2022/03/14 01:59:29;;;;;;;;;;;8.90;99.90;;;;;;5051682;28;19931;-72
2022/03/14 02:01:57;;;;;;;;;;;8.90;99.90;;;;;;5039905;28;19932;-72
2022/03/14 02:04:23;;;;;;;;;;;9.00;99.90;;;;;;5040091;28;19925;-72
2022/03/14 02:06:52;;;;;;;;;;;9.00;99.90;;;;;;5041722;28;19971;-72
2022/03/14 02:09:19;;;;;;;;;;;8.90;99.90;;;;;;5037512;28;19925;-74
2022/03/14 02:11:50;;;;;;;;;;;8.90;99.90;;;;;;5039555;28;19925;-73
2022/03/14 02:14:17;;;;;;;;;;;8.90;99.90;;;;;;5048189;28;19935;-72
2022/03/14 02:16:43;;;;;;;;;;;8.90;99.90;;;;;;5047519;28;19924;-73
2022/03/14 02:19:11;;;;;;;;;;;8.80;99.90;;;;;;5047461;28;19979;-72
2022/03/14 02:21:40;;;;;;;;;;;8.80;99.90;;;;;;5047005;28;19931;-73
2022/03/14 02:24:06;;;;;;;;;;;8.70;99.90;;;;;;5031928;28;20402;-72
2022/03/14 02:26:39;;;;;;;;;;;8.60;99.90;;;;;;5034877;28;20398;-72
2022/03/14 02:29:05;;;;;;;;;;;8.60;99.90;;;;;;5043807;28;19925;-72
2022/03/14 02:31:32;;;;;;;;;;;8.60;99.90;;;;;;5044357;28;20284;-72
2022/03/14 02:33:59;;;;;;;;;;;8.60;99.90;;;;;;5045180;28;19932;-73
2022/03/14 02:36:26;;;;;;;;;;;8.50;99.90;;;;;;5046875;28;19929;-73
2022/03/14 02:38:54;;;;;;;;;;;8.50;99.90;;;;;;5036955;28;19964;-73
2022/03/14 02:41:22;;;;;;;;;;;8.50;99.90;;;;;;5032245;28;19932;-73
2022/03/14 02:43:49;;;;;;;;;;;8.40;99.90;;;;;;5044541;28;19935;-73
2022/03/14 02:46:16;;;;;;;;;;;8.30;99.90;;;;;;5044864;28;19931;-73
2022/03/14 02:48:43;;;;;;;;;;;8.30;99.90;;;;;;5049285;28;19925;-73
2022/03/14 02:51:09;;;;;;;;;;;8.30;99.90;;;;;;5044308;28;19947;-72
2022/03/14 02:53:36;;;;;;;;;;;8.20;99.90;;;;;;5037674;28;19931;-73
2022/03/14 02:56:04;;;;;;;;;;;8.20;99.90;;;;;;5035692;28;20011;-73
2022/03/14 02:58:32;;;;;;;;;;;8.20;99.90;;;;;;5034256;28;19931;-72
2022/03/14 03:01:00;;;;;;;;;;;8.20;99.90;;;;;;5034928;28;19955;-73
2022/03/14 03:03:27;;;;;;;;;;;8.20;99.90;;;;;;5045477;28;20082;-72
2022/03/14 03:05:54;;;;;;;;;;;8.20;99.90;;;;;;5042386;28;19925;-72
2022/03/14 03:08:22;;;;;;;;;;;8.10;99.90;;;;;;5052525;28;19925;-73
2022/03/14 03:10:49;;;;;;;;;;;8.10;99.90;;;;;;5055928;28;19929;-73
2022/03/14 03:13:19;;;;;;;;;;;8.20;99.90;;;;;;5046738;28;20431;-74
2022/03/14 03:15:46;;;;;;;;;;;8.20;99.90;;;;;;5039987;28;19925;-72
2022/03/14 03:18:13;;;;;;;;;;;8.30;99.90;;;;;;5053621;28;20024;-73
2022/03/14 03:20:42;;;;;;;;;;;8.30;99.90;;;;;;5046914;28;19976;-72
2022/03/14 03:23:08;;;;;;;;;;;8.40;99.90;;;;;;5053111;28;20023;-72
2022/03/14 03:25:35;;;;;;;;;;;8.40;99.90;;;;;;5043697;28;19929;-72
2022/03/14 03:28:02;;;;;;;;;;;8.40;99.90;;;;;;5041475;28;19925;-72
2022/03/14 03:30:30;;;;;;;;;;;8.50;99.90;;;;;;5033780;28;20459;-72
2022/03/14 03:32:56;;;;;;;;;;;8.50;99.90;;;;;;5044914;28;19925;-74
2022/03/14 03:35:23;;;;;;;;;;;8.50;99.90;;;;;;5046096;28;19931;-73
2022/03/14 03:37:50;;;;;;;;;;;8.60;99.90;;;;;;5049033;28;19932;-73
2022/03/14 03:40:16;;;;;;;;;;;8.50;99.90;;;;;;5046124;28;19931;-72
2022/03/14 03:42:43;;;;;;;;;;;8.50;99.90;;;;;;5055813;28;20024;-73
2022/03/14 03:45:13;;;;;;;;;;;8.60;99.90;;;;;;5032076;28;20016;-73
2022/03/14 03:47:41;;;;;;;;;;;8.60;99.90;;;;;;5040120;28;19939;-73
2022/03/14 03:50:08;;;;;;;;;;;8.60;99.90;;;;;;5047999;28;20334;-72
2022/03/14 03:52:35;;;;;;;;;;;8.60;99.90;;;;;;5056243;28;19925;-74
2022/03/14 03:55:02;;;;;;;;;;;8.60;99.90;;;;;;5047263;28;20016;-73
2022/03/14 03:57:28;;;;;;;;;;;8.60;99.90;;;;;;5033982;28;20028;-74
2022/03/14 03:59:55;;;;;;;;;;;8.60;99.90;;;;;;5031984;28;19932;-72
2022/03/14 04:02:22;;;;;;;;;;;8.70;99.90;;;;;;5041813;28;20288;-73
2022/03/14 04:04:50;;;;;;;;;;;8.70;99.90;;;;;;5040973;28;19925;-73
2022/03/14 04:07:18;;;;;;;;;;;8.70;99.90;;;;;;5050309;28;20522;-73
2022/03/14 04:09:45;;;;;;;;;;;8.70;99.90;;;;;;5043585;28;19978;-73
2022/03/14 04:12:12;;;;;;;;;;;8.70;99.90;;;;;;5048680;28;19931;-72
2022/03/14 04:14:39;;;;;;;;;;;8.70;99.90;;;;;;5034666;28;19925;-73
2022/03/14 04:17:07;;;;;;;;;;;8.70;99.90;;;;;;5046243;28;19925;-73
2022/03/14 04:19:40;;;;;;;;;;;8.70;99.90;;;;;;5051311;28;19925;-73
2022/03/14 04:22:09;;;;;;;;;;;8.70;99.90;;;;;;5052475;28;20009;-72
2022/03/14 04:24:37;;;;;;;;;;;8.70;99.90;;;;;;5038119;28;19928;-73
2022/03/14 04:27:04;;;;;;;;;;;8.70;99.90;;;;;;5048062;28;19925;-73
2022/03/14 04:29:31;;;;;;;;;;;8.70;99.90;;;;;;5036108;28;20008;-73
2022/03/14 04:31:58;;;;;;;;;;;8.70;99.90;;;;;;5043189;28;20295;-72
2022/03/14 04:34:25;;;;;;;;;;;8.70;99.90;;;;;;5045881;28;19925;-73
2022/03/14 04:36:51;;;;;;;;;;;8.70;99.90;;;;;;5051042;28;20340;-72
2022/03/14 04:39:20;;;;;;;;;;;8.70;99.90;;;;;;5041235;28;19925;-72
2022/03/14 04:41:46;;;;;;;;;;;8.60;99.90;;;;;;5048884;28;19931;-73
2022/03/14 04:44:14;;;;;;;;;;;8.70;99.90;;;;;;5038533;28;19979;-73
2022/03/14 04:46:40;;;;;;;;;;;8.60;99.90;;;;;;5046908;28;20033;-73
2022/03/14 04:49:08;;;;;;;;;;;8.70;99.90;;;;;;5039892;28;20351;-72
2022/03/14 04:51:36;;;;;;;;;;;8.70;99.90;;;;;;5039796;28;19975;-73
2022/03/14 04:54:03;;;;;;;;;;;8.70;99.90;;;;;;5049304;28;19925;-72
2022/03/14 04:56:31;;;;;;;;;;;8.80;99.90;;;;;;5049248;28;19925;-73
2022/03/14 04:58:58;;;;;;;;;;;8.70;99.90;;;;;;5046069;28;19932;-73
2022/03/14 05:01:24;;;;;;;;;;;8.70;99.90;;;;;;5036398;28;19925;-72
2022/03/14 05:03:52;;;;;;;;;;;8.70;99.90;;;;;;5043562;28;20023;-72
2022/03/14 05:06:18;;;;;;;;;;;8.70;99.90;;;;;;5044607;28;19926;-72
2022/03/14 05:08:45;;;;;;;;;;;8.70;99.90;;;;;;5046864;28;19956;-72
2022/03/14 05:11:12;;;;;;;;;;;8.70;99.90;;;;;;5045880;28;19964;-72
2022/03/14 05:13:41;;;;;;;;;;;8.70;99.90;;;;;;5059744;28;19935;-72
2022/03/14 05:16:08;;;;;;;;;;;8.70;99.90;;;;;;5050514;28;19925;-73
2022/03/14 05:18:35;;;;;;;;;;;8.80;99.90;;;;;;5049480;28;20027;-72
2022/03/14 05:21:02;;;;;;;;;;;8.70;99.90;;;;;;5051054;28;19932;-69
2022/03/14 05:23:29;;;;;;;;;;;8.70;99.90;;;;;;5041605;28;20435;-74
2022/03/14 05:25:56;;;;;;;;;;;8.70;99.90;;;;;;5050438;28;19931;-70
2022/03/14 05:28:23;;;;;;;;;;;8.70;99.90;;;;;;5047181;28;19943;-71
2022/03/14 05:30:51;;;;;;;;;;;8.70;99.90;;;;;;5042499;28;19929;-70
2022/03/14 05:33:18;;;;;;;;;;;8.80;99.90;;;;;;5042627;28;19925;-70
2022/03/14 05:35:45;;;;;;;;;;;8.70;99.90;;;;;;5051815;28;19939;-71
2022/03/14 05:38:11;;;;;;;;;;;8.70;99.90;;;;;;5035560;28;19925;-70
2022/03/14 05:40:38;;;;;;;;;;;8.70;99.90;;;;;;5043656;28;20352;-70
2022/03/14 05:43:06;;;;;;;;;;;8.70;99.90;;;;;;5045358;28;19939;-70
2022/03/14 05:45:35;;;;;;;;;;;8.70;99.90;;;;;;5048561;28;20510;-70
2022/03/14 05:48:04;;;;;;;;;;;8.70;99.90;;;;;;5042883;28;19924;-70
2022/03/14 05:50:30;;;;;;;;;;;8.70;99.90;;;;;;5038033;28;20020;-70
2022/03/14 05:52:57;;;;;;;;;;;8.60;99.90;;;;;;5051700;28;19924;-71
2022/03/14 05:55:24;;;;;;;;;;;8.60;99.90;;;;;;5051586;28;20015;-71
2022/03/14 05:57:52;;;;;;;;;;;8.50;99.90;;;;;;5051195;28;19952;-71
2022/03/14 06:00:23;;;;;;;;;;;8.60;99.90;;;;;;5036028;28;19926;-73
2022/03/14 06:02:51;;;;;;;;;;;8.60;99.90;;;;;;5053075;28;19925;-71
2022/03/14 06:05:20;;;;;;;;;;;8.50;99.90;;;;;;5033678;28;19925;-70
2022/03/14 06:07:47;;;;;;;;;;;8.50;99.90;;;;;;5032718;28;19925;-71
2022/03/14 06:10:15;;;;;;;;;;;8.50;99.90;;;;;;5042902;28;19931;-71
2022/03/14 06:12:42;;;;;;;;;;;8.40;99.90;;;;;;5051145;28;19955;-71
2022/03/14 06:15:10;;;;;;;;;;;8.30;99.90;;;;;;5032102;28;20019;-71
2022/03/14 06:17:37;;;;;;;;;;;8.30;99.90;;;;;;5049922;28;19925;-72
2022/03/14 06:20:04;;;;;;;;;;;8.20;99.90;;;;;;5034291;28;19925;-70
2022/03/14 06:22:32;;;;;;;;;;;8.30;99.90;;;;;;5032495;28;19932;-72
2022/03/14 06:25:02;;;;;;;;;;;8.30;99.90;;;;;;5036798;28;19929;-70
2022/03/14 06:27:29;;;;;;;;;;;8.30;99.90;;;;;;5045175;28;19967;-71
2022/03/14 06:29:55;;;;;;;;;;;8.40;99.90;;;;;;5044974;28;19943;-71
2022/03/14 06:32:22;;;;;;;;;;;8.40;99.90;;;;;;5047698;28;19979;-71
2022/03/14 06:34:49;;;;;;;;;;;8.40;99.90;;;;;;5035143;28;19932;-72
2022/03/14 06:37:15;;;;;;;;;;;8.40;99.90;;;;;;5043081;28;20372;-71
2022/03/14 06:39:43;;;;;;;;;;;8.50;99.90;;;;;;5035013;28;19925;-70
2022/03/14 06:42:10;;;;;;;;;;;8.50;99.90;;;;;;5043588;28;20016;-71
2022/03/14 06:44:38;;;;;;;;;;;8.50;99.90;;;;;;5036543;28;20285;-72
2022/03/14 06:47:06;;;;;;;;;;;8.60;99.90;;;;;;5036817;28;20300;-71
2022/03/14 06:49:33;;;;;;;;;;;8.50;99.90;;;;;;5032724;28;20352;-71
2022/03/14 06:52:00;;;;;;;;;;;8.60;99.90;;;;;;5039727;28;19929;-73
2022/03/14 06:54:30;;;;;;;;;;;8.70;99.90;;;;;;5034877;28;19925;-74
2022/03/14 06:56:58;;;;;;;;;;;8.70;99.90;;;;;;5044964;28;19931;-72
2022/03/14 06:59:25;;;;;;;;;;;8.80;99.90;;;;;;5040745;28;19932;-72
2022/03/14 07:01:51;;;;;;;;;;;8.70;99.90;;;;;;5041141;28;20011;-73
2022/03/14 07:04:18;;;;;;;;;;;8.80;99.90;;;;;;5048056;28;19925;-71
2022/03/14 07:06:45;;;;;;;;;;;8.90;99.90;;;;;;5042949;28;19931;-71
2022/03/14 07:09:12;;;;;;;;;;;8.80;99.90;;;;;;5039634;28;19929;-72
2022/03/14 07:11:39;;;;;;;;;;;8.90;99.90;;;;;;5055146;28;19924;-72
2022/03/14 07:14:07;;;;;;;;;;;8.90;99.90;;;;;;5038003;28;19931;-72
2022/03/14 07:16:34;;;;;;;;;;;9.00;99.90;;;;;;5041390;28;19970;-75
2022/03/14 07:19:01;;;;;;;;;;;9.00;99.90;;;;;;5047898;28;19929;-73
2022/03/14 07:21:28;;;;;;;;;;;9.00;99.90;;;;;;5042248;28;19933;-73
2022/03/14 07:23:56;;;;;;;;;;;9.00;99.90;;;;;;5043941;28;19925;-72
2022/03/14 07:26:22;;;;;;;;;;;9.10;99.90;;;;;;5039837;28;19968;-72
2022/03/14 07:28:49;;;;;;;;;;;9.10;99.90;;;;;;5044151;28;19924;-72
2022/03/14 07:31:18;;;;;;;;;;;9.00;99.90;;;;;;5047216;28;20027;-74
2022/03/14 07:33:45;;;;;;;;;;;9.00;99.90;;;;;;5045982;28;19925;-71
2022/03/14 07:36:11;;;;;;;;;;;9.10;99.90;;;;;;5047838;28;19925;-72
2022/03/14 07:38:38;;;;;;;;;;;9.20;99.90;;;;;;5046745;28;19925;-72
2022/03/14 07:41:05;;;;;;;;;;;9.10;99.90;;;;;;5046680;28;19946;-73
2022/03/14 07:43:32;;;;;;;;;;;9.20;99.90;;;;;;5040166;28;19925;-72
2022/03/14 07:45:58;;;;;;;;;;;9.20;99.90;;;;;;5050475;28;19925;-75
2022/03/14 07:48:26;;;;;;;;;;;9.30;99.90;;;;;;5049630;28;19924;-75
2022/03/14 07:50:53;;;;;;;;;;;9.40;99.90;;;;;;5042341;28;19925;-75
2022/03/14 07:53:20;;;;;;;;;;;9.40;99.90;;;;;;5047092;28;24355;-75
2022/03/14 07:55:46;;;;;;;;;;;9.50;99.90;;;;;;5044882;28;20020;-75
2022/03/14 07:58:13;;;;;;;;;;;9.50;99.90;;;;;;5043077;28;19947;-75
2022/03/14 08:00:40;;;;;;;;;;;9.50;99.90;;;;;;5047395;28;19978;-75
2022/03/14 08:03:07;;;;;;;;;;;9.60;99.90;;;;;;5050846;28;19924;-75
2022/03/14 08:05:35;;;;;;;;;;;9.70;99.90;;;;;;5037777;28;19935;-74
2022/03/14 08:08:04;;;;;;;;;;;9.70;99.90;;;;;;5042353;28;19929;-75
2022/03/14 08:10:31;;;;;;;;;;;9.70;99.90;;;;;;5049400;28;19929;-74
2022/03/14 08:12:58;;;;;;;;;;;9.70;99.90;;;;;;5047565;28;20383;-74
2022/03/14 08:15:25;;;;;;;;;;;9.70;99.90;;;;;;5038964;28;20324;-74
2022/03/14 08:17:52;;;;;;;;;;;9.70;99.90;;;;;;5046317;28;19924;-72
2022/03/14 08:20:20;;;;;;;;;;;9.70;99.90;;;;;;5047260;28;19925;-72
2022/03/14 08:22:48;;;;;;;;;;;9.70;99.90;;;;;;5044541;28;19931;-71
2022/03/14 08:25:15;;;;;;;;;;;9.70;99.90;;;;;;5051838;28;19925;-74
2022/03/14 08:27:41;;;;;;;;;;;9.70;99.90;;;;;;5041515;28;20021;-72
2022/03/14 08:30:09;;;;;;;;;;;9.60;99.90;;;;;;5042498;28;19925;-71
2022/03/14 08:32:36;;;;;;;;;;;9.60;99.90;;;;;;5049995;28;19933;-72
2022/03/14 08:35:07;;;;;;;;;;;9.70;99.90;;;;;;5050342;28;19925;-73
2022/03/14 08:37:37;;;;;;;;;;;9.70;99.90;;;;;;5046324;28;20423;-73
2022/03/14 08:40:07;;;;;;;;;;;9.80;99.90;;;;;;5043929;28;19956;-72
2022/03/14 08:42:34;;;;;;;;;;;9.80;99.90;;;;;;5053224;28;20160;-73
2022/03/14 08:45:00;;;;;;;;;;;9.60;99.90;;;;;;5050837;28;19925;-71
2022/03/14 08:47:27;;;;;;;;;;;9.60;99.90;;;;;;5043800;28;19932;-72
2022/03/14 08:49:54;;;;;;;;;;;9.70;99.90;;;;;;5048973;28;19925;-72
2022/03/14 08:52:20;;;;;;;;;;;9.70;99.90;;;;;;5039287;28;19932;-72
2022/03/14 08:54:47;;;;;;;;;;;9.70;99.90;;;;;;5043922;28;19925;-74
2022/03/14 08:57:16;;;;;;;;;;;9.80;99.90;;;;;;5047587;28;19972;-74
2022/03/14 08:59:43;;;;;;;;;;;9.80;99.90;;;;;;5050479;28;20007;-74
2022/03/14 09:02:10;;;;;;;;;;;9.80;99.90;;;;;;5049749;28;19970;-76
2022/03/14 09:04:36;;;;;;;;;;;9.70;99.90;;;;;;5040388;28;19979;-74
2022/03/14 09:07:03;;;;;;;;;;;9.80;99.90;;;;;;5047665;28;19931;-75
2022/03/14 09:09:30;;;;;;;;;;;9.80;99.90;;;;;;5039752;28;19932;-72
2022/03/14 09:11:56;;;;;;;;;;;9.90;99.90;;;;;;5043225;28;19931;-71
2022/03/14 09:14:25;;;;;;;;;;;10.00;99.90;;;;;;5038591;28;19935;-71
2022/03/14 09:16:52;;;;;;;;;;;9.90;99.90;;;;;;5049675;28;19972;-72
2022/03/14 09:19:18;;;;;;;;;;;10.00;99.90;;;;;;5040985;28;19929;-71
2022/03/14 09:21:46;;;;;;;;;;;9.90;99.90;;;;;;5037157;28;20020;-72
2022/03/14 09:24:12;;;;;;;;;;;9.90;99.90;;;;;;5049527;28;20420;-72
2022/03/14 09:26:39;;;;;;;;;;;9.80;99.90;;;;;;5051126;28;20383;-72
2022/03/14 09:29:08;;;;;;;;;;;9.90;99.90;;;;;;5048703;28;19925;-72
2022/03/14 09:31:36;;;;;;;;;;;9.70;99.90;;;;;;5051590;28;19924;-72
2022/03/14 09:34:02;;;;;;;;;;;9.80;99.90;;;;;;5043625;28;20316;-72
2022/03/14 09:36:29;;;;;;;;;;;9.80;99.90;;;;;;5050503;28;20015;-73
2022/03/14 09:38:56;;;;;;;;;;;9.80;99.90;;;;;;5042710;28;19932;-73
2022/03/14 09:41:24;;;;;;;;;;;9.90;99.90;;;;;;5041373;28;20012;-72
2022/03/14 09:43:52;;;;;;;;;;;10.00;99.90;;;;;;5048444;28;19998;-76
2022/03/14 09:46:21;;;;;;;;;;;10.20;99.90;;;;;;5053440;28;19929;-76
2022/03/14 09:48:51;;;;;;;;;;;10.30;99.90;;;;;;5047101;28;19967;-75
2022/03/14 09:51:19;;;;;;;;;;;10.70;99.90;;;;;;5044222;28;19931;-72
2022/03/14 09:53:45;;;;;;;;;;;10.70;99.90;;;;;;5041874;28;19924;-72
2022/03/14 09:56:12;;;;;;;;;;;10.80;99.90;;;;;;5051551;28;19971;-71
2022/03/14 09:58:39;;;;;;;;;;;10.70;99.90;;;;;;5050149;28;19925;-71
2022/03/14 10:01:06;;;;;;;;;;;10.70;99.90;;;;;;5047341;28;20287;-70
2022/03/14 10:03:33;;;;;;;;;;;10.50;99.90;;;;;;5046221;28;19929;-71
2022/03/14 10:06:00;;;;;;;;;;;10.40;99.90;;;;;;5033381;28;20024;-71
2022/03/14 10:08:27;;;;;;;;;;;10.50;99.90;;;;;;5037878;28;19964;-72
2022/03/14 10:10:54;;;;;;;;;;;10.60;99.90;;;;;;5050278;28;19931;-73
2022/03/14 10:13:20;;;;;;;;;;;10.50;99.90;;;;;;5046517;28;19925;-72
2022/03/14 10:15:48;;;;;;;;;;;10.40;99.90;;;;;;5048325;28;19933;-72
2022/03/14 10:18:15;;;;;;;;;;;10.30;99.90;;;;;;5047830;28;19925;-72
2022/03/14 10:20:55;;;;;;;;;;;10.40;99.90;;;;;;5045397;28;19925;-73
2022/03/14 10:23:30;;;;;;;;;;;10.40;99.90;;;;;;5050069;28;20008;-72
2022/03/14 10:25:59;;;;;;;;;;;10.50;99.90;;;;;;5046330;28;20384;-73
2022/03/14 10:28:28;;;;;;;;;;;10.50;99.90;;;;;;5038387;28;19925;-73
2022/03/14 10:30:54;;;;;;;;;;;10.70;99.90;;;;;;5044238;28;19931;-73
2022/03/14 10:33:24;;;;;;;;;;;10.80;99.90;;;;;;5042109;28;19924;-73
2022/03/14 10:35:55;;;;;;;;;;;10.90;99.90;;;;;;5039959;28;19937;-73
2022/03/14 10:38:22;;;;;;;;;;;11.10;99.90;;;;;;5049551;28;19939;-73
2022/03/14 10:40:50;;;;;;;;;;;11.30;99.90;;;;;;5035308;28;19924;-72
2022/03/14 10:43:24;;;;;;;;;;;11.60;99.90;;;;;;5038817;28;20395;-73
2022/03/14 10:45:51;;;;;;;;;;;11.70;99.90;;;;;;5033633;28;19931;-72
2022/03/14 10:48:17;;;;;;;;;;;11.90;99.90;;;;;;5042126;28;19932;-72
2022/03/14 10:50:44;;;;;;;;;;;12.00;99.90;;;;;;5047528;28;20016;-73
2022/03/14 10:53:12;;;;;;;;;;;11.90;99.90;;;;;;5045603;28;19969;-73
2022/03/14 10:55:40;;;;;;;;;;;11.90;99.90;;;;;;5040786;28;20451;-73
2022/03/14 10:58:16;;;;;;;;;;;12.10;99.90;;;;;;5035176;28;20287;-72
2022/03/14 11:00:46;;;;;;;;;;;12.30;99.90;;;;;;5042296;28;20465;-73
2022/03/14 11:03:20;;;;;;;;;;;12.10;99.90;;;;;;5030789;28;19932;-72
2022/03/14 11:05:47;;;;;;;;;;;12.10;99.90;;;;;;5040681;28;19971;-73
2022/03/14 11:08:27;;;;;;;;;;;11.90;99.90;;;;;;5045002;28;20031;-72
2022/03/14 11:10:54;;;;;;;;;;;11.90;99.90;;;;;;5018489;28;19968;-72
2022/03/14 11:13:22;;;;;;;;;;;12.00;99.90;;;;;;5040487;28;19925;-73
2022/03/14 11:15:49;;;;;;;;;;;12.00;99.90;;;;;;5051105;28;19931;-73
2022/03/14 11:18:16;;;;;;;;;;;12.10;99.90;;;;;;5053186;28;20017;-72
2022/03/14 11:20:43;;;;;;;;;;;12.20;99.90;;;;;;5046148;28;19931;-73
2022/03/14 11:23:10;;;;;;;;;;;12.10;99.90;;;;;;5035853;28;19929;-72
2022/03/14 11:25:38;;;;;;;;;;;12.00;99.90;;;;;;5054078;28;19982;-73
2022/03/14 11:28:05;;;;;;;;;;;12.00;99.90;;;;;;5052309;28;19931;-73
2022/03/14 11:30:34;;;;;;;;;;;12.10;99.90;;;;;;5047801;28;19924;-74
2022/03/14 11:33:02;;;;;;;;;;;12.10;99.90;;;;;;5052523;28;19925;-72
2022/03/14 11:35:32;;;;;;;;;;;11.90;99.90;;;;;;5035306;28;19925;-73
2022/03/14 11:37:59;;;;;;;;;;;11.90;99.90;;;;;;5052987;28;20019;-75
2022/03/14 11:40:26;;;;;;;;;;;11.70;99.90;;;;;;5048565;28;20445;-73
2022/03/14 11:42:53;;;;;;;;;;;11.70;99.90;;;;;;5035738;28;20361;-72
2022/03/14 11:45:19;;;;;;;;;;;11.60;99.90;;;;;;5040036;28;20002;-72
2022/03/14 11:47:48;;;;;;;;;;;11.50;99.90;;;;;;5047413;28;20382;-73
2022/03/14 11:50:15;;;;;;;;;;;11.60;99.90;;;;;;5035107;28;19925;-71
2022/03/14 11:52:43;;;;;;;;;;;11.90;99.90;;;;;;5052441;28;19931;-71
2022/03/14 11:55:17;;;;;;;;;;;12.40;99.90;;;;;;5036589;28;19931;-72
2022/03/14 11:57:44;;;;;;;;;;;12.50;99.90;;;;;;5042031;28;20375;-71
2022/03/14 12:00:32;;;;;;;;;;;12.50;99.90;;;;;;5036610;28;19932;-72
2022/03/14 12:03:01;;;;;;;;;;;12.30;99.90;;;;;;5053025;28;19960;-72
2022/03/14 12:05:42;;;;;;;;;;;12.50;99.90;;;;;;5050954;28;19994;-71
2022/03/14 12:08:30;;;;;;;;;;;12.50;99.90;;;;;;5049290;28;20048;-72
2022/03/14 12:11:16;;;;;;;;;;;12.70;99.90;;;;;;5035270;28;19933;-73
2022/03/14 12:13:43;;;;;;;;;;;12.70;99.90;;;;;;5035047;28;19932;-70
2022/03/14 12:16:25;;;;;;;;;;;12.50;99.70;;;;;;5046486;28;20364;-71
2022/03/14 12:18:58;;;;;;;;;;;12.60;99.50;;;;;;5046781;28;19925;-71
2022/03/14 12:21:42;;;;;;;;;;;12.60;99.80;;;;;;5039426;28;19942;-70
2022/03/14 12:24:18;;;;;;;;;;;12.60;99.10;;;;;;5051552;28;20392;-71
2022/03/14 12:26:44;;;;;;;;;;;12.80;98.90;;;;;;5042985;28;19967;-70
2022/03/14 12:29:26;;;;;;;;;;;12.80;98.00;;;;;;5040739;28;19952;-70
2022/03/14 12:32:07;;;;;;;;;;;12.90;97.40;;;;;;5047161;28;19925;-71
2022/03/14 12:34:35;;;;;;;;;;;13.10;97.20;;;;;;5038121;28;19925;-71
2022/03/14 12:37:06;;;;;;;;;;;13.30;96.20;;;;;;5035563;28;19967;-71
2022/03/14 12:39:36;;;;;;;;;;;13.50;94.80;;;;;;5040169;28;20078;-70
2022/03/14 12:42:22;;;;;;;;;;;13.50;94.00;;;;;;5042309;28;19925;-70
2022/03/14 12:45:04;;;;;;;;;;;13.60;92.80;;;;;;5042452;28;19925;-70
2022/03/14 12:47:30;;;;;;;;;;;13.80;91.50;;;;;;5031481;28;20024;-70
2022/03/14 12:49:58;;;;;;;;;;;14.10;91.50;;;;;;5034790;28;19979;-70
2022/03/14 12:52:26;;;;;;;;;;;14.20;88.80;;;;;;5037150;28;19932;-70
2022/03/14 12:54:53;;;;;;;;;;;14.00;88.00;;;;;;5033826;28;19925;-70
2022/03/14 12:57:24;;;;;;;;;;;13.80;88.80;;;;;;5037100;28;20400;-71
2022/03/14 12:59:58;;;;;;;;;;;14.00;89.30;;;;;;5032640;28;19925;-70
2022/03/14 13:02:26;;;;;;;;;;;13.90;88.10;;;;;;5039975;28;19925;-71
2022/03/14 13:04:56;;;;;;;;;;;14.10;88.40;;;;;;5032679;28;19971;-71
2022/03/14 13:07:24;;;;;;;;;;;14.10;87.90;;;;;;5037856;28;19925;-71
2022/03/14 13:09:51;;;;;;;;;;;14.20;88.20;;;;;;5033101;28;19932;-71
2022/03/14 13:12:18;;;;;;;;;;;14.40;86.60;;;;;;5033881;28;19925;-70
2022/03/14 13:14:45;;;;;;;;;;;14.50;85.80;;;;;;5039339;28;19925;-71
2022/03/14 13:17:20;;;;;;;;;;;14.70;85.20;;;;;;5035611;28;20296;-70
2022/03/14 13:19:47;;;;;;;;;;;15.00;84.60;;;;;;5038221;28;19925;-69
2022/03/14 13:22:14;;;;;;;;;;;15.20;83.20;;;;;;5040386;28;20316;-69
2022/03/14 13:24:45;;;;;;;;;;;15.30;78.40;;;;;;5043302;28;19932;-69
2022/03/14 13:27:12;;;;;;;;;;;15.00;76.20;;;;;;5034547;28;19932;-69
2022/03/14 13:29:40;;;;;;;;;;;14.90;75.70;;;;;;5037618;28;20024;-70
2022/03/14 13:32:13;;;;;;;;;;;15.00;74.60;;;;;;5036182;28;20048;-69
2022/03/14 13:34:40;;;;;;;;;;;14.90;75.50;;;;;;5047785;28;19925;-70
2022/03/14 13:37:10;;;;;;;;;;;14.80;76.20;;;;;;5041926;28;19925;-70
2022/03/14 13:39:36;;;;;;;;;;;14.90;76.10;;;;;;5035630;28;19924;-70
2022/03/14 13:42:05;;;;;;;;;;;14.90;75.90;;;;;;5038577;28;19925;-70
2022/03/14 13:44:31;;;;;;;;;;;14.80;75.00;;;;;;5041710;28;19925;-69
2022/03/14 13:46:59;;;;;;;;;;;14.80;75.90;;;;;;5041696;28;19946;-69
2022/03/14 13:49:26;;;;;;;;;;;15.00;75.20;;;;;;5044547;28;19928;-70
2022/03/14 13:51:54;;;;;;;;;;;15.20;74.10;;;;;;5039564;28;19925;-69
2022/03/14 13:54:23;;;;;;;;;;;15.30;71.70;;;;;;5044464;28;19925;-69
2022/03/14 13:56:53;;;;;;;;;;;15.20;71.20;;;;;;5036582;28;19947;-69
2022/03/14 13:59:27;;;;;;;;;;;15.20;70.00;;;;;;5045210;28;19925;-69
2022/03/14 14:01:55;;;;;;;;;;;15.20;67.70;;;;;;5039176;28;19932;-69
2022/03/14 14:04:25;;;;;;;;;;;14.90;67.30;;;;;;5031891;28;20015;-70
2022/03/14 14:06:53;;;;;;;;;;;14.70;67.70;;;;;;5031249;28;20008;-70
2022/03/14 14:09:20;;;;;;;;;;;14.70;69.00;;;;;;5042535;28;19925;-69
2022/03/14 14:11:57;;;;;;;;;;;15.00;67.70;;;;;;5036154;28;20404;-70
2022/03/14 14:14:25;;;;;;;;;;;15.10;66.30;;;;;;5035921;28;19925;-70
2022/03/14 14:16:53;;;;;;;;;;;15.40;65.30;;;;;;5040337;28;19925;-69
2022/03/14 14:19:22;;;;;;;;;;;15.50;64.20;;;;;;5031125;28;19925;-70
2022/03/14 14:21:55;;;;;;;;;;;15.80;62.90;;;;;;5036679;28;20339;-69
2022/03/14 14:24:23;;;;;;;;;;;16.10;59.40;;;;;;5040385;28;19925;-69
2022/03/14 14:26:50;;;;;;;;;;;16.00;59.10;;;;;;5035789;28;19925;-69
2022/03/14 14:29:32;;;;;;;;;;;15.70;59.80;;;;;;5040171;28;19935;-70
2022/03/14 14:34:58;;;;;;;;;;;15.40;59.90;;;;;;5134984;27;19916;-69